Time;durP1;ratioP1;P1;durP2;ratioP2;P2;SDS_P1;SDS_P2;PMS_P1;PMS_P2;Temp;Humidity;BMP_temperature;BMP_pressure;BME280_temperature;BME280_humidity;BME280_pressure;Samples;Min_cycle;Max_cycle;Signal;HPM_P1;HPM_P2
2021/09/05 00:00:58;;;;;;;11.45;6.43;;;;;;;22.39;53.33;102211.16;5001768;28;20045;-71
2021/09/05 00:03:23;;;;;;;11.32;7.07;;;;;;;22.37;53.21;102209.66;5000072;28;20045;-71
2021/09/05 00:05:49;;;;;;;10.65;6.25;;;;;;;22.37;53.42;102213.13;5002032;28;20049;-71
2021/09/05 00:08:15;;;;;;;10.95;6.60;;;;;;;22.37;53.14;102210.47;5002129;28;20041;-71
2021/09/05 00:10:40;;;;;;;9.93;6.10;;;;;;;22.39;53.16;102205.84;5000603;28;20039;-71
2021/09/05 00:13:06;;;;;;;12.90;6.60;;;;;;;22.41;53.19;102205.69;5002840;28;20743;-71
2021/09/05 00:15:31;;;;;;;11.43;6.40;;;;;;;22.40;53.41;102211.97;5000785;28;20921;-71
2021/09/05 00:17:58;;;;;;;13.10;7.15;;;;;;;22.39;53.24;102205.84;5001493;28;20049;-71
2021/09/05 00:20:23;;;;;;;11.55;6.82;;;;;;;22.35;53.29;102201.84;5000730;28;20041;-71
2021/09/05 00:22:49;;;;;;;12.18;6.60;;;;;;;22.37;53.38;102204.34;5001636;28;20078;-71
2021/09/05 00:25:15;;;;;;;12.40;6.70;;;;;;;22.34;53.28;102194.91;4999402;28;20408;-71
2021/09/05 00:27:41;;;;;;;11.38;6.72;;;;;;;22.19;53.12;102176.13;5001011;28;20050;-71
2021/09/05 00:30:07;;;;;;;11.63;6.80;;;;;;;22.36;53.37;102205.34;4999859;28;20042;-71
2021/09/05 00:32:33;;;;;;;9.88;6.20;;;;;;;22.29;53.40;102203.34;5003064;28;20037;-71
2021/09/05 00:34:58;;;;;;;9.05;5.65;;;;;;;22.35;53.50;102214.28;4982929;28;20612;-71
2021/09/05 00:37:24;;;;;;;12.60;6.88;;;;;;;22.33;53.35;102214.47;5000802;28;20034;-71
2021/09/05 00:39:49;;;;;;;11.65;6.50;;;;;;;22.36;53.40;102214.13;5000788;28;20818;-71
2021/09/05 00:42:26;;;;;;;12.38;6.75;;;;;;;22.35;53.54;102220.44;4983125;28;20041;-71
2021/09/05 00:44:53;;;;;;;12.23;7.13;;;;;;;22.31;53.20;102205.84;5000486;28;20369;-71
2021/09/05 00:47:19;;;;;;;10.27;6.25;;;;;;;22.27;53.25;102199.19;4984542;28;20037;-71
2021/09/05 00:49:45;;;;;;;10.45;6.32;;;;;;;22.33;53.17;102217.13;4983161;28;20132;-71
2021/09/05 00:52:12;;;;;;;11.02;6.35;;;;;;;22.33;53.34;102219.78;4984605;28;20215;-71
2021/09/05 00:54:42;;;;;;;10.13;6.35;;;;;;;22.34;53.48;102220.59;4983562;28;20033;-71
2021/09/05 00:57:12;;;;;;;12.23;6.93;;;;;;;22.34;53.07;102220.59;4964362;28;20031;-71
2021/09/05 00:59:40;;;;;;;11.57;6.47;;;;;;;22.34;53.27;102218.78;4982644;28;20062;-71
2021/09/05 01:02:06;;;;;;;11.10;6.57;;;;;;;22.35;53.12;102219.59;4983789;28;20044;-71
2021/09/05 01:04:32;;;;;;;12.38;6.82;;;;;;;22.35;53.01;102217.78;5001057;28;20034;-71
2021/09/05 01:06:58;;;;;;;10.93;6.43;;;;;;;22.36;53.39;102218.63;4983706;28;20102;-71
2021/09/05 01:09:26;;;;;;;10.15;5.93;;;;;;;22.35;53.25;102228.41;4982523;28;20037;-71
2021/09/05 01:11:53;;;;;;;12.02;6.38;;;;;;;22.35;53.26;102227.56;4983262;28;20149;-71
2021/09/05 01:14:20;;;;;;;10.52;6.30;;;;;;;22.29;53.10;102213.13;4964944;28;20035;-71
2021/09/05 01:16:46;;;;;;;9.50;6.40;;;;;;;22.34;53.32;102226.75;4981946;28;20148;-71
2021/09/05 01:19:30;;;;;;;9.98;6.20;;;;;;;22.33;53.38;102227.72;4999735;28;20049;-71
2021/09/05 01:22:14;;;;;;;11.35;6.55;;;;;;;22.33;53.30;102221.59;5003966;28;20514;-71
2021/09/05 01:24:59;;;;;;;12.32;6.88;;;;;;;22.31;53.41;102221.75;5004080;28;20057;-71
2021/09/05 01:27:47;;;;;;;14.27;7.10;;;;;;;22.32;53.44;102223.41;4996665;28;20511;-71
2021/09/05 01:30:31;;;;;;;10.38;6.28;;;;;;;22.31;53.46;102227.91;5004462;28;20053;-71
2021/09/05 01:33:16;;;;;;;11.45;6.15;;;;;;;22.34;53.22;102225.91;4989305;28;20146;-71
2021/09/05 01:36:07;;;;;;;12.32;6.53;;;;;;;22.32;53.03;102228.72;4976881;28;20041;-71
2021/09/05 01:38:53;;;;;;;11.20;6.55;;;;;;;22.27;53.17;102226.56;5001577;28;20050;-71
2021/09/05 01:41:45;;;;;;;10.40;6.50;;;;;;;22.31;53.17;102232.38;4999795;28;20089;-71
2021/09/05 01:44:20;;;;;;;10.40;6.18;;;;;;;22.28;53.38;102232.72;5002500;28;20058;-71
2021/09/05 01:47:04;;;;;;;9.68;5.68;;;;;;;22.24;53.13;102218.06;5002261;28;20049;-71
2021/09/05 01:49:53;;;;;;;11.43;6.75;;;;;;;22.26;53.02;102222.25;5013935;28;20046;-71
2021/09/05 01:52:41;;;;;;;13.32;7.32;;;;;;;22.28;53.54;102227.41;5002278;28;20046;-71
2021/09/05 01:55:25;;;;;;;11.00;6.07;;;;;;;22.28;53.46;102228.22;5012468;28;20056;-71
2021/09/05 01:58:11;;;;;;;10.60;6.35;;;;;;;22.28;53.10;102235.34;4976806;28;20100;-71
2021/09/05 02:00:55;;;;;;;10.88;6.30;;;;;;;22.30;53.35;102228.06;5000832;28;20514;-71
2021/09/05 02:03:39;;;;;;;9.85;5.68;;;;;;;22.27;53.34;102228.41;4987085;28;20034;-71
2021/09/05 02:06:23;;;;;;;9.55;6.30;;;;;;;22.26;53.35;102229.34;4971534;28;20684;-71
2021/09/05 02:09:15;;;;;;;12.10;6.78;;;;;;;22.26;53.24;102235.53;4984647;28;20038;-71
2021/09/05 02:12:15;;;;;;;10.20;6.35;;;;;;;22.28;53.07;102235.34;4954248;28;20146;-71
2021/09/05 02:15:03;;;;;;;11.07;6.60;;;;;;;22.27;53.37;102231.06;4982072;28;20461;-71
2021/09/05 02:17:49;;;;;;;10.77;6.95;;;;;;;22.27;53.21;102239.00;4971198;28;20037;-71
2021/09/05 02:20:29;;;;;;;11.02;6.35;;;;;;;22.18;53.09;102216.09;4984534;28;20042;-71
2021/09/05 02:23:13;;;;;;;12.07;6.60;;;;;;;22.22;53.23;102230.69;5001597;28;20086;-71
2021/09/05 02:25:57;;;;;;;9.88;5.93;;;;;;;22.27;53.24;102236.34;5002900;28;20122;-71
2021/09/05 02:28:47;;;;;;;9.07;6.10;;;;;;;22.26;53.35;102235.53;4985133;28;20128;-71
2021/09/05 02:31:19;;;;;;;10.00;6.03;;;;;;;22.18;53.53;102235.47;4987548;28;20038;-71
2021/09/05 02:34:03;;;;;;;11.57;6.72;;;;;;;22.25;53.25;102239.13;5000428;28;20171;-71
2021/09/05 02:36:47;;;;;;;9.63;6.28;;;;;;;22.14;52.96;102222.72;4999431;28;20148;-71
2021/09/05 02:39:28;;;;;;;10.65;6.38;;;;;;;22.20;53.08;102225.53;4985614;28;20053;-71
2021/09/05 02:42:16;;;;;;;11.20;6.70;;;;;;;22.23;53.19;102235.81;5001999;28;20050;-71
2021/09/05 02:45:02;;;;;;;12.48;5.85;;;;;;;22.21;53.28;102237.81;5002845;28;20064;-71
2021/09/05 02:47:47;;;;;;;11.60;6.18;;;;;;;22.22;53.34;102242.13;4999833;28;20061;-71
2021/09/05 02:50:28;;;;;;;12.13;6.85;;;;;;;22.18;53.08;102232.00;4984922;28;20073;-71
2021/09/05 02:53:32;;;;;;;11.88;6.90;;;;;;;22.22;53.31;102242.13;4932672;28;20142;-71
2021/09/05 02:56:16;;;;;;;11.90;7.35;;;;;;;22.23;53.35;102245.59;4914769;28;20045;-71
2021/09/05 02:59:01;;;;;;;9.35;6.20;;;;;;;22.20;53.58;102249.41;4964251;28;20689;-71
2021/09/05 03:01:49;;;;;;;12.93;6.57;;;;;;;22.21;53.38;102250.25;4962784;28;20034;-71
2021/09/05 03:04:35;;;;;;;12.10;6.22;;;;;;;22.23;53.45;102254.41;4985760;28;20084;-71
2021/09/05 03:07:23;;;;;;;10.20;5.85;;;;;;;22.24;53.05;102250.75;4999475;28;20050;-71
2021/09/05 03:10:15;;;;;;;12.77;6.95;;;;;;;22.15;53.33;102243.78;4997408;28;20042;-71
2021/09/05 03:12:41;;;;;;;8.13;5.32;;;;;;;22.21;53.17;102259.03;4985350;28;20083;-71
2021/09/05 03:15:25;;;;;;;9.57;6.07;;;;;;;22.21;53.17;102255.56;5001260;28;21650;-71
2021/09/05 03:18:09;;;;;;;9.90;5.72;;;;;;;22.14;53.28;102243.94;5001728;28;20087;-71
2021/09/05 03:20:53;;;;;;;9.93;5.60;;;;;;;22.19;53.29;102255.72;4988742;28;20063;-71
2021/09/05 03:23:42;;;;;;;9.38;6.05;;;;;;;22.19;53.29;102258.38;4991220;28;20179;-71
2021/09/05 03:26:26;;;;;;;10.32;5.95;;;;;;;22.18;53.24;102261.19;5002943;28;20065;-71
2021/09/05 03:29:14;;;;;;;9.77;6.10;;;;;;;22.16;53.08;102252.56;5000424;28;20056;-71
2021/09/05 03:32:03;;;;;;;12.10;6.45;;;;;;;22.16;53.13;102250.75;4973767;28;20057;-71
2021/09/05 03:34:55;;;;;;;10.52;6.07;;;;;;;22.15;53.56;102254.38;5013197;28;20065;-71
2021/09/05 03:37:39;;;;;;;9.48;5.65;;;;;;;22.16;53.47;102253.38;5004015;28;20048;-71
2021/09/05 03:40:34;;;;;;;9.93;5.82;;;;;;;22.20;53.45;102253.91;4940431;28;20136;-70
2021/09/05 03:43:27;;;;;;;11.73;6.32;;;;;;;22.08;53.14;102236.59;4985006;28;20044;-71
2021/09/05 03:46:15;;;;;;;9.48;5.65;;;;;;;22.14;53.17;102247.41;4982815;28;20041;-71
2021/09/05 03:49:16;;;;;;;10.98;6.00;;;;;;;22.17;53.41;102260.34;4932435;28;20043;-71
2021/09/05 03:51:44;;;;;;;10.23;5.82;;;;;;;22.15;53.34;102256.22;4957332;28;20776;-71
2021/09/05 03:54:14;;;;;;;11.00;6.18;;;;;;;22.12;53.20;102251.22;4982929;28;20082;-71
2021/09/05 03:56:41;;;;;;;11.00;6.57;;;;;;;22.09;53.17;102255.03;4968694;28;20050;-71
2021/09/05 03:59:07;;;;;;;10.45;5.70;;;;;;;22.11;53.16;102263.66;4962360;28;20047;-71
2021/09/05 04:01:35;;;;;;;9.52;6.10;;;;;;;22.17;53.27;102270.97;4984281;28;20056;-71
2021/09/05 04:04:16;;;;;;;11.98;6.68;;;;;;;22.13;53.20;102264.31;4984070;28;20483;-71
2021/09/05 04:06:44;;;;;;;9.50;6.00;;;;;;;22.12;53.26;102261.84;4965590;28;20041;-71
2021/09/05 04:10:08;;;;;;;11.63;6.40;;;;;;;22.13;53.31;102260.84;4982364;28;20037;-71
2021/09/05 04:11:55;;;;;;;9.60;5.57;;;;;;;22.13;53.36;102256.38;4984271;28;20125;-71
2021/09/05 04:14:21;;;;;;;11.15;6.32;;;;;;;22.07;53.25;102253.50;5000648;28;20042;-71
2021/09/05 04:16:46;;;;;;;9.15;5.57;;;;;;;22.10;53.40;102263.81;4984452;28;20111;-71
2021/09/05 04:19:12;;;;;;;9.02;5.47;;;;;;;22.09;53.24;102255.03;4986388;28;20399;-71
2021/09/05 04:21:37;;;;;;;8.95;5.93;;;;;;;22.06;53.33;102254.50;5001590;28;20556;-71
2021/09/05 04:24:03;;;;;;;11.00;6.53;;;;;;;22.12;53.27;102267.16;4981771;28;20038;-71
2021/09/05 04:26:28;;;;;;;10.63;6.10;;;;;;;22.12;53.36;102270.63;5000740;28;20121;-71
2021/09/05 04:28:54;;;;;;;11.98;6.15;;;;;;;22.08;53.29;102261.31;5000818;28;20045;-71
2021/09/05 04:31:19;;;;;;;8.57;5.85;;;;;;;21.92;53.13;102243.50;5000960;28;20037;-71
2021/09/05 04:33:45;;;;;;;11.45;5.90;;;;;;;21.98;53.26;102258.75;4983981;28;20068;-71
2021/09/05 04:36:11;;;;;;;10.73;5.57;;;;;;;22.11;53.01;102279.59;4983396;28;20037;-71
2021/09/05 04:38:37;;;;;;;9.75;6.53;;;;;;;22.12;53.00;102277.75;4983922;28;20044;-71
2021/09/05 04:41:02;;;;;;;10.15;6.43;;;;;;;22.08;53.44;102273.75;4984719;28;20479;-71
2021/09/05 04:43:28;;;;;;;11.65;7.00;;;;;;;22.07;53.16;102278.22;5000251;28;20038;-71
2021/09/05 04:45:53;;;;;;;8.75;5.35;;;;;;;22.02;53.09;102272.53;4983426;28;20038;-71
2021/09/05 04:48:19;;;;;;;9.35;6.25;;;;;;;22.05;53.41;102282.84;4988260;28;20075;-71
2021/09/05 04:50:46;;;;;;;9.93;5.95;;;;;;;22.11;53.00;102284.88;4972289;28;20482;-71
2021/09/05 04:53:11;;;;;;;9.20;5.85;;;;;;;21.83;53.18;102244.44;5001468;28;20102;-71
2021/09/05 04:55:37;;;;;;;10.13;6.53;;;;;;;22.02;53.13;102270.72;4980544;28;20046;-71
2021/09/05 04:58:03;;;;;;;10.48;6.25;;;;;;;22.11;52.92;102292.00;5006206;28;20072;-71
2021/09/05 05:00:28;;;;;;;10.60;6.13;;;;;;;22.07;53.28;102293.31;4988437;28;20109;-71
2021/09/05 05:02:54;;;;;;;9.48;6.00;;;;;;;22.03;53.10;102287.44;5002449;28;20029;-71
2021/09/05 05:05:20;;;;;;;10.98;6.60;;;;;;;22.03;53.07;102282.16;4986210;28;20491;-71
2021/09/05 05:07:45;;;;;;;10.65;6.43;;;;;;;22.07;53.23;102299.44;5005383;28;20149;-71
2021/09/05 05:10:11;;;;;;;10.85;6.53;;;;;;;22.07;53.23;102296.78;4990078;28;20037;-71
2021/09/05 05:12:36;;;;;;;10.02;6.15;;;;;;;22.08;53.10;102297.63;5010033;28;20034;-71
2021/09/05 05:15:02;;;;;;;10.30;6.15;;;;;;;22.01;52.93;102289.44;4994067;28;20049;-71
2021/09/05 05:17:28;;;;;;;10.93;6.30;;;;;;;22.07;52.96;102303.91;5002726;28;20502;-71
2021/09/05 05:19:53;;;;;;;9.40;5.63;;;;;;;22.08;53.31;102300.25;5003017;28;20033;-71
2021/09/05 05:22:19;;;;;;;10.32;6.85;;;;;;;22.06;53.24;102304.91;5004075;28;20558;-72
2021/09/05 05:24:44;;;;;;;10.60;6.13;;;;;;;22.07;53.01;102309.22;5004111;28;20049;-71
2021/09/05 05:27:10;;;;;;;9.85;6.25;;;;;;;22.00;53.13;102296.56;5002952;28;20049;-71
2021/09/05 05:29:35;;;;;;;9.75;5.63;;;;;;;22.05;53.27;102304.06;4993681;28;20042;-71
2021/09/05 05:32:01;;;;;;;10.85;6.78;;;;;;;22.09;53.19;102307.25;5004622;28;20349;-71
2021/09/05 05:34:27;;;;;;;8.48;5.57;;;;;;;22.06;53.16;102308.38;4985706;28;20030;-71
2021/09/05 05:36:52;;;;;;;8.63;5.85;;;;;;;22.02;53.00;102293.75;5001408;28;20038;-71
2021/09/05 05:39:18;;;;;;;11.20;6.32;;;;;;;22.07;53.14;102312.69;5003857;28;20046;-71
2021/09/05 05:41:43;;;;;;;8.80;5.75;;;;;;;22.06;52.96;102310.22;5000713;28;20050;-71
2021/09/05 05:44:09;;;;;;;9.95;6.18;;;;;;;22.06;53.27;102313.69;4985003;28;20095;-71
2021/09/05 05:46:34;;;;;;;8.75;6.00;;;;;;;22.00;52.92;102298.38;5004996;28;20385;-71
2021/09/05 05:49:00;;;;;;;10.30;6.07;;;;;;;22.05;53.11;102309.38;4999281;28;20037;-71
2021/09/05 05:51:26;;;;;;;10.93;6.32;;;;;;;22.08;53.22;102314.34;5001517;28;20046;-71
2021/09/05 05:53:51;;;;;;;9.45;6.13;;;;;;;22.05;53.32;102304.06;5002453;28;20506;-71
2021/09/05 05:56:17;;;;;;;8.55;5.53;;;;;;;22.01;52.90;102300.03;4986975;28;20392;-71
2021/09/05 05:58:42;;;;;;;9.80;5.90;;;;;;;22.04;53.18;102307.69;5002927;28;20383;-71
2021/09/05 06:01:09;;;;;;;11.18;5.60;;;;;;;22.05;52.89;102309.38;5004387;28;20091;-71
2021/09/05 06:03:36;;;;;;;10.90;6.75;;;;;;;22.07;53.02;102330.44;4999173;28;20153;-71
2021/09/05 06:06:02;;;;;;;9.27;5.88;;;;;;;22.08;52.91;102322.31;5003568;28;20099;-71
2021/09/05 06:08:27;;;;;;;9.77;6.03;;;;;;;21.91;53.09;102296.69;4999661;28;20100;-71
2021/09/05 06:10:53;;;;;;;12.20;6.28;;;;;;;22.06;52.98;102323.47;4987127;28;20053;-71
2021/09/05 06:13:19;;;;;;;8.38;5.50;;;;;;;22.02;53.30;102313.16;4985278;28;20041;-71
2021/09/05 06:15:44;;;;;;;10.02;6.30;;;;;;;22.08;52.84;102316.19;4980757;28;20062;-71
2021/09/05 06:18:10;;;;;;;8.10;5.30;;;;;;;22.07;52.93;102318.00;5002257;28;20711;-71
2021/09/05 06:20:35;;;;;;;10.70;6.63;;;;;;;22.01;53.19;102314.13;4978804;28;20042;-71
2021/09/05 06:23:01;;;;;;;9.52;6.43;;;;;;;22.07;53.32;102325.97;4984448;28;20133;-71
2021/09/05 06:25:26;;;;;;;8.52;5.50;;;;;;;22.06;52.98;102323.47;4994539;28;20041;-71
2021/09/05 06:27:52;;;;;;;8.95;5.80;;;;;;;22.05;53.29;102327.94;5002039;28;20042;-71
2021/09/05 06:30:17;;;;;;;11.80;6.60;;;;;;;22.05;52.99;102324.47;5003193;28;20034;-71
2021/09/05 06:32:43;;;;;;;9.23;6.05;;;;;;;21.99;53.14;102320.59;4985496;28;20075;-71
2021/09/05 06:35:08;;;;;;;9.73;5.82;;;;;;;22.03;53.05;102325.41;4984684;28;20083;-71
2021/09/05 06:37:34;;;;;;;9.73;6.68;;;;;;;22.06;53.18;102332.25;5003652;28;20034;-71
2021/09/05 06:39:59;;;;;;;9.10;5.75;;;;;;;22.03;53.27;102330.72;4984499;28;20037;-71
2021/09/05 06:42:25;;;;;;;11.07;5.97;;;;;;;22.07;53.16;102333.91;5000914;28;20046;-71
2021/09/05 06:44:50;;;;;;;8.90;5.82;;;;;;;21.98;53.05;102321.59;5002693;28;20112;-71
2021/09/05 06:47:16;;;;;;;8.95;5.50;;;;;;;22.09;53.04;102336.44;4998664;28;20037;-71
2021/09/05 06:49:42;;;;;;;8.13;5.60;;;;;;;22.00;53.32;102330.22;4997534;28;20030;-71
2021/09/05 06:52:07;;;;;;;8.85;5.47;;;;;;;22.04;53.31;102342.16;5000193;28;20045;-70
2021/09/05 06:54:33;;;;;;;10.57;5.88;;;;;;;22.03;53.26;102336.03;4981100;28;20094;-70
2021/09/05 06:56:58;;;;;;;9.63;6.15;;;;;;;22.02;52.95;102331.72;5003890;28;20487;-70
2021/09/05 06:59:24;;;;;;;9.98;6.43;;;;;;;22.04;53.22;102342.16;5003279;28;20429;-70
2021/09/05 07:01:49;;;;;;;10.15;6.30;;;;;;;22.07;52.96;102344.53;4980261;28;20050;-70
2021/09/05 07:04:15;;;;;;;9.02;5.90;;;;;;;22.06;53.24;102340.22;5001694;28;20054;-70
2021/09/05 07:06:41;;;;;;;9.20;5.57;;;;;;;22.09;53.01;102347.06;4971154;28;20041;-70
2021/09/05 07:09:06;;;;;;;10.05;5.20;;;;;;;22.10;52.90;102359.34;5051719;28;20045;-70
2021/09/05 07:11:32;;;;;;;11.05;6.43;;;;;;;22.06;53.25;102361.44;5037386;28;20043;-71
2021/09/05 07:13:57;;;;;;;8.40;5.50;;;;;;;22.05;53.04;102357.13;5049193;28;20050;-70
2021/09/05 07:16:23;;;;;;;8.88;5.72;;;;;;;22.08;52.88;102363.94;5049063;28;20047;-70
2021/09/05 07:18:48;;;;;;;8.25;5.90;;;;;;;22.08;53.16;102367.41;5003332;28;20091;-70
2021/09/05 07:21:14;;;;;;;10.73;6.57;;;;;;;22.07;52.92;102362.28;5038619;28;20036;-70
2021/09/05 07:23:39;;;;;;;8.73;5.53;;;;;;;22.02;52.86;102360.91;5028024;28;20049;-70
2021/09/05 07:26:05;;;;;;;9.20;5.82;;;;;;;22.11;53.15;102375.09;5051599;28;20037;-70
2021/09/05 07:28:33;;;;;;;10.05;6.10;;;;;;;22.09;53.01;102365.63;5047479;28;20042;-70
2021/09/05 07:31:00;;;;;;;8.00;5.25;;;;;;;21.91;53.06;102342.63;5045662;28;20099;-70
2021/09/05 07:33:26;;;;;;;8.85;5.85;;;;;;;22.07;52.92;102365.75;5035929;28;20038;-71
2021/09/05 07:35:51;;;;;;;9.50;5.72;;;;;;;22.07;52.87;102373.72;5027438;28;20441;-71
2021/09/05 07:38:17;;;;;;;8.13;5.30;;;;;;;22.05;53.12;102367.75;5057745;28;20031;-71
2021/09/05 07:40:42;;;;;;;9.88;5.85;;;;;;;22.09;53.03;102371.75;5041457;28;20042;-70
2021/09/05 07:43:08;;;;;;;9.75;5.82;;;;;;;22.09;53.16;102370.94;5030014;28;20716;-70
2021/09/05 07:45:34;;;;;;;8.05;5.57;;;;;;;22.07;52.89;102376.38;5032798;28;20042;-71
2021/09/05 07:48:00;;;;;;;9.90;6.22;;;;;;;22.07;52.92;102373.72;5055511;28;20063;-70
2021/09/05 07:50:26;;;;;;;8.18;5.30;;;;;;;22.11;52.74;102374.25;5000932;28;20030;-70
2021/09/05 07:52:51;;;;;;;9.82;6.40;;;;;;;22.07;53.19;102370.22;5000322;28;20061;-70
2021/09/05 07:55:17;;;;;;;10.48;6.07;;;;;;;22.11;52.98;102382.22;4982547;28;20070;-70
2021/09/05 07:57:42;;;;;;;9.68;6.13;;;;;;;22.03;53.14;102369.69;4983866;28;20030;-71
2021/09/05 08:00:08;;;;;;;10.73;6.70;;;;;;;22.12;53.16;102381.22;4983620;28;20038;-70
2021/09/05 08:02:37;;;;;;;9.75;5.93;;;;;;;22.11;53.20;102390.19;5001956;28;20553;-70
2021/09/05 08:05:03;;;;;;;9.23;6.07;;;;;;;22.13;52.88;102391.69;5000165;28;20041;-70
2021/09/05 08:07:29;;;;;;;9.10;5.88;;;;;;;22.11;52.74;102379.56;4984117;28;20042;-70
2021/09/05 08:09:55;;;;;;;9.85;6.60;;;;;;;22.13;53.10;102391.69;5001455;28;20060;-70
2021/09/05 08:12:20;;;;;;;8.85;5.75;;;;;;;22.15;53.16;102400.31;5002048;28;20079;-70
2021/09/05 08:14:46;;;;;;;10.18;6.50;;;;;;;22.08;53.02;102374.53;5000532;28;20053;-70
2021/09/05 08:17:11;;;;;;;9.90;7.03;;;;;;;22.12;53.22;102391.84;5000056;28;20066;-71
2021/09/05 08:19:37;;;;;;;9.38;6.05;;;;;;;22.13;53.40;102399.63;4989804;28;20042;-70
2021/09/05 08:22:03;;;;;;;9.77;6.00;;;;;;;21.92;53.17;102368.16;4999811;28;20049;-70
2021/09/05 08:24:28;;;;;;;10.80;6.60;;;;;;;22.10;53.00;102394.66;5002198;28;20399;-69
2021/09/05 08:26:54;;;;;;;9.80;6.43;;;;;;;22.10;52.96;102394.66;4983084;28;20530;-70
2021/09/05 08:29:19;;;;;;;10.85;6.90;;;;;;;22.13;53.35;102391.69;5004611;28;20394;-70
2021/09/05 08:31:45;;;;;;;9.27;6.03;;;;;;;22.12;52.91;102403.28;4994310;28;20034;-70
2021/09/05 08:34:11;;;;;;;11.07;7.00;;;;;;;22.06;52.73;102392.44;5002802;28;20087;-70
2021/09/05 08:36:36;;;;;;;9.90;6.15;;;;;;;22.12;52.81;102405.94;4996542;28;20118;-70
2021/09/05 08:39:02;;;;;;;9.85;6.88;;;;;;;22.15;52.72;102408.25;5000228;28;20022;-70
2021/09/05 08:41:28;;;;;;;10.07;6.32;;;;;;;22.12;53.23;102408.59;5031764;28;20529;-69
2021/09/05 08:43:53;;;;;;;10.32;7.07;;;;;;;22.14;53.00;102417.22;5022583;28;20109;-69
2021/09/05 08:46:20;;;;;;;11.13;7.13;;;;;;;22.17;53.12;102418.72;5024837;28;20059;-69
2021/09/05 08:48:49;;;;;;;10.60;6.80;;;;;;;22.11;52.94;102412.22;5015444;28;20112;-69
2021/09/05 08:51:15;;;;;;;10.23;7.10;;;;;;;22.15;52.97;102424.19;5048463;28;20484;-70
2021/09/05 08:53:41;;;;;;;11.27;7.15;;;;;;;22.12;53.03;102410.41;4995079;28;20150;-69
2021/09/05 08:56:06;;;;;;;10.77;6.72;;;;;;;22.10;53.05;102418.53;5008433;28;20053;-69
2021/09/05 08:58:32;;;;;;;10.38;6.75;;;;;;;22.14;53.25;102419.03;5047338;28;20403;-70
2021/09/05 09:00:57;;;;;;;11.13;6.78;;;;;;;22.12;53.07;102416.53;4997403;28;20656;-69
2021/09/05 09:03:24;;;;;;;10.38;7.13;;;;;;;22.20;52.96;102424.53;4999900;28;20498;-70
2021/09/05 09:05:52;;;;;;;11.95;7.30;;;;;;;22.15;53.05;102416.22;5010287;28;20380;-69
2021/09/05 09:08:19;;;;;;;9.73;6.50;;;;;;;22.19;52.95;102424.69;5049857;28;20019;-70
2021/09/05 09:11:03;;;;;;;10.48;6.78;;;;;;;22.21;53.16;102425.38;5032886;28;20054;-69
2021/09/05 09:13:30;;;;;;;11.77;7.07;;;;;;;22.21;52.86;102420.91;5015582;28;20666;-70
2021/09/05 09:15:58;;;;;;;10.63;7.13;;;;;;;22.18;52.83;102420.38;5026423;28;20034;-70
2021/09/05 09:18:28;;;;;;;10.35;6.65;;;;;;;22.23;52.92;102424.22;5027410;28;20038;-70
2021/09/05 09:20:56;;;;;;;10.18;6.80;;;;;;;22.21;53.37;102420.91;4996091;28;20083;-70
2021/09/05 09:23:26;;;;;;;11.65;7.50;;;;;;;22.16;53.24;102422.38;5053914;28;20098;-70
2021/09/05 09:26:16;;;;;;;10.88;7.20;;;;;;;22.22;52.90;102422.56;5041915;28;20116;-70
2021/09/05 09:28:45;;;;;;;12.52;6.90;;;;;;;22.21;52.94;102428.03;4990111;28;20034;-69
2021/09/05 09:31:20;;;;;;;11.50;7.63;;;;;;;22.18;53.37;102426.53;4985984;28;20042;-70
2021/09/05 09:33:50;;;;;;;10.15;7.20;;;;;;;22.20;53.45;102416.56;5011195;28;20089;-70
2021/09/05 09:36:18;;;;;;;11.18;7.07;;;;;;;22.24;53.28;102433.84;5008230;28;20176;-70
2021/09/05 09:38:54;;;;;;;11.18;7.80;;;;;;;22.25;53.18;102432.03;5058557;28;20438;-71
2021/09/05 09:41:19;;;;;;;10.23;7.15;;;;;;;22.21;53.28;102433.34;5034650;28;20377;-70
2021/09/05 09:43:51;;;;;;;9.43;6.82;;;;;;;22.25;53.24;102440.81;5029011;28;20038;-70
2021/09/05 09:46:19;;;;;;;11.35;7.05;;;;;;;22.28;53.15;102439.69;5047172;28;20036;-70
2021/09/05 09:48:47;;;;;;;10.77;7.38;;;;;;;22.26;52.96;102437.19;5047173;28;20387;-70
2021/09/05 09:51:14;;;;;;;11.23;7.43;;;;;;;22.26;53.39;102434.53;4997476;28;20041;-70
2021/09/05 09:53:41;;;;;;;11.73;7.82;;;;;;;22.23;53.21;102437.50;4979919;28;20079;-70
2021/09/05 09:56:08;;;;;;;10.50;6.90;;;;;;;22.24;53.27;102430.34;4996322;28;20140;-70
2021/09/05 09:58:36;;;;;;;13.52;7.93;;;;;;;22.25;53.31;102437.31;4998275;28;20053;-70
2021/09/05 10:01:02;;;;;;;10.68;7.18;;;;;;;22.24;53.44;102438.31;4990440;28;20064;-69
2021/09/05 10:03:30;;;;;;;12.00;8.27;;;;;;;22.27;53.29;102438.88;4993280;28;20109;-70
2021/09/05 10:05:59;;;;;;;11.35;7.55;;;;;;;22.23;53.01;102434.84;4993871;28;20760;-70
2021/09/05 10:08:26;;;;;;;10.75;7.30;;;;;;;22.29;53.16;102439.53;4995002;28;20045;-71
2021/09/05 10:10:57;;;;;;;12.70;7.32;;;;;;;22.25;53.50;102439.97;5002690;28;20115;-70
2021/09/05 10:13:33;;;;;;;12.63;8.15;;;;;;;22.28;53.11;102445.84;5001886;28;20400;-70
2021/09/05 10:16:02;;;;;;;12.75;7.45;;;;;;;22.27;53.50;102452.13;4998298;28;20062;-70
2021/09/05 10:18:29;;;;;;;13.65;7.55;;;;;;;22.26;53.70;102449.59;4993842;28;20460;-70
2021/09/05 10:20:59;;;;;;;12.05;7.97;;;;;;;22.22;53.37;102432.34;4992076;28;20080;-70
2021/09/05 10:23:30;;;;;;;12.70;7.85;;;;;;;22.28;53.16;102445.84;4994040;28;20746;-70
2021/09/05 10:26:07;;;;;;;12.65;7.68;;;;;;;22.28;53.41;102437.88;4997832;28;20110;-70
2021/09/05 10:29:11;;;;;;;12.80;8.07;;;;;;;22.29;53.28;102444.84;4991273;28;20052;-70
2021/09/05 10:31:39;;;;;;;10.80;7.40;;;;;;;22.30;52.98;102440.38;4994962;28;20034;-69
2021/09/05 10:34:34;;;;;;;10.85;7.65;;;;;;;22.28;53.46;102435.22;4977392;28;20030;-70
2021/09/05 10:37:12;;;;;;;11.95;7.97;;;;;;;22.33;53.32;102426.78;4998841;28;20043;-70
2021/09/05 10:40:06;;;;;;;11.90;8.02;;;;;;;22.31;53.14;102429.59;4994658;28;20042;-70
2021/09/05 10:42:31;;;;;;;11.73;7.80;;;;;;;22.31;53.14;102434.06;4996023;28;20377;-70
2021/09/05 10:45:06;;;;;;;11.10;7.53;;;;;;;22.31;53.38;102429.59;4980263;28;20038;-70
2021/09/05 10:47:44;;;;;;;12.20;8.05;;;;;;;22.29;53.36;102434.22;5005571;28;20129;-70
2021/09/05 10:50:32;;;;;;;11.73;7.85;;;;;;;22.31;53.28;102442.84;5002969;28;20037;-70
2021/09/05 10:53:16;;;;;;;11.30;7.90;;;;;;;22.33;53.45;102439.22;4989881;28;20084;-70
2021/09/05 10:56:03;;;;;;;11.20;7.57;;;;;;;22.33;53.37;102429.44;4989926;28;20074;-70
2021/09/05 10:58:46;;;;;;;11.10;7.78;;;;;;;22.33;53.56;102424.13;4995587;28;20415;-70
2021/09/05 11:01:19;;;;;;;12.32;7.65;;;;;;;22.33;53.67;102418.81;4978421;28;20062;-70
2021/09/05 11:04:16;;;;;;;13.68;8.45;;;;;;;22.36;53.30;102425.63;4991255;28;20088;-70
2021/09/05 11:06:44;;;;;;;13.65;8.38;;;;;;;22.37;53.27;102421.97;4994056;28;20107;-70
2021/09/05 11:09:19;;;;;;;14.13;8.98;;;;;;;22.34;53.41;102419.66;4998659;28;20489;-70
2021/09/05 11:11:59;;;;;;;12.65;7.90;;;;;;;22.36;53.57;102420.31;4998393;28;20038;-70
2021/09/05 11:14:48;;;;;;;11.90;8.23;;;;;;;22.38;53.43;102429.78;4976844;28;20033;-70
2021/09/05 11:17:16;;;;;;;15.07;9.05;;;;;;;22.35;53.40;102423.97;4979855;28;20042;-69
2021/09/05 11:19:46;;;;;;;14.40;8.55;;;;;;;22.35;53.41;102419.47;4980291;28;20034;-70
2021/09/05 11:22:38;;;;;;;12.38;7.93;;;;;;;22.38;53.74;102428.94;4993885;28;20117;-70
2021/09/05 11:25:09;;;;;;;;;;;;;;;22.36;53.68;102422.97;4974817;28;20038;-69
2021/09/05 11:27:45;;;;;;;12.30;8.00;;;;;;;22.36;53.64;102412.34;4989760;28;19921;-70
2021/09/05 11:30:11;;;;;;;14.77;8.75;;;;;;;22.35;53.50;102416.84;4988757;28;20475;-70
2021/09/05 11:32:39;;;;;;;13.32;8.02;;;;;;;22.38;53.31;102413.03;4989757;28;20071;-70
2021/09/05 11:35:11;;;;;;;14.35;8.82;;;;;;;22.38;53.75;102413.03;4975414;28;20042;-69
2021/09/05 11:37:39;;;;;;;12.43;7.47;;;;;;;22.36;53.58;102409.69;4995738;28;20034;-70
2021/09/05 11:40:12;;;;;;;13.43;8.75;;;;;;;22.34;53.85;102404.56;4992663;28;20050;-70